sensor_id;sensor_type;location;lat;lon;timestamp;P1;durP1;ratioP1;P2;durP2;ratioP2
40669;SDS011;26355;45.528;9.234;2023-07-30T00:01:11;6.10;;;1.85;;
40669;SDS011;26355;45.528;9.234;2023-07-30T00:03:36;7.13;;;2.03;;
40669;SDS011;26355;45.528;9.234;2023-07-30T00:06:02;9.65;;;2.58;;
40669;SDS011;26355;45.528;9.234;2023-07-30T00:08:27;6.43;;;2.13;;
40669;SDS011;26355;45.528;9.234;2023-07-30T00:10:53;9.02;;;2.58;;
40669;SDS011;26355;45.528;9.234;2023-07-30T00:13:21;8.68;;;2.28;;
40669;SDS011;26355;45.528;9.234;2023-07-30T00:15:47;6.65;;;2.10;;
40669;SDS011;26355;45.528;9.234;2023-07-30T00:18:13;7.13;;;2.10;;
40669;SDS011;26355;45.528;9.234;2023-07-30T00:20:40;6.55;;;2.22;;
40669;SDS011;26355;45.528;9.234;2023-07-30T00:23:05;7.75;;;2.58;;
40669;SDS011;26355;45.528;9.234;2023-07-30T00:25:31;9.90;;;2.70;;
40669;SDS011;26355;45.528;9.234;2023-07-30T00:27:56;8.20;;;2.30;;
40669;SDS011;26355;45.528;9.234;2023-07-30T00:30:22;8.95;;;2.72;;
40669;SDS011;26355;45.528;9.234;2023-07-30T00:32:48;10.75;;;2.63;;
40669;SDS011;26355;45.528;9.234;2023-07-30T00:35:13;8.27;;;2.80;;
40669;SDS011;26355;45.528;9.234;2023-07-30T00:37:39;7.75;;;2.42;;
40669;SDS011;26355;45.528;9.234;2023-07-30T00:40:04;11.25;;;2.78;;
40669;SDS011;26355;45.528;9.234;2023-07-30T00:42:31;8.10;;;2.22;;
40669;SDS011;26355;45.528;9.234;2023-07-30T00:44:56;9.77;;;2.63;;
40669;SDS011;26355;45.528;9.234;2023-07-30T00:47:22;7.57;;;2.60;;
40669;SDS011;26355;45.528;9.234;2023-07-30T00:49:48;8.30;;;2.35;;
40669;SDS011;26355;45.528;9.234;2023-07-30T00:52:15;9.88;;;2.92;;
40669;SDS011;26355;45.528;9.234;2023-07-30T00:54:43;10.18;;;2.50;;
40669;SDS011;26355;45.528;9.234;2023-07-30T00:57:08;8.50;;;2.60;;
40669;SDS011;26355;45.528;9.234;2023-07-30T00:59:35;10.40;;;2.77;;
40669;SDS011;26355;45.528;9.234;2023-07-30T01:02:01;9.02;;;2.58;;
40669;SDS011;26355;45.528;9.234;2023-07-30T01:04:28;7.28;;;2.33;;
40669;SDS011;26355;45.528;9.234;2023-07-30T01:06:54;11.20;;;2.72;;
40669;SDS011;26355;45.528;9.234;2023-07-30T01:09:20;12.43;;;3.40;;
40669;SDS011;26355;45.528;9.234;2023-07-30T01:11:46;13.55;;;4.03;;
40669;SDS011;26355;45.528;9.234;2023-07-30T01:14:12;14.57;;;4.88;;
40669;SDS011;26355;45.528;9.234;2023-07-30T01:19:05;19.97;;;9.93;;
40669;SDS011;26355;45.528;9.234;2023-07-30T01:21:32;19.90;;;9.40;;
40669;SDS011;26355;45.528;9.234;2023-07-30T01:26:24;18.13;;;9.35;;
40669;SDS011;26355;45.528;9.234;2023-07-30T01:29:03;18.60;;;9.15;;
40669;SDS011;26355;45.528;9.234;2023-07-30T01:31:34;17.42;;;8.05;;
40669;SDS011;26355;45.528;9.234;2023-07-30T01:36:28;16.30;;;6.20;;
40669;SDS011;26355;45.528;9.234;2023-07-30T01:38:54;15.55;;;5.80;;
40669;SDS011;26355;45.528;9.234;2023-07-30T01:43:49;15.57;;;6.70;;
40669;SDS011;26355;45.528;9.234;2023-07-30T01:46:15;14.65;;;5.68;;
40669;SDS011;26355;45.528;9.234;2023-07-30T01:48:40;14.73;;;6.05;;
40669;SDS011;26355;45.528;9.234;2023-07-30T01:51:06;13.95;;;5.68;;
40669;SDS011;26355;45.528;9.234;2023-07-30T01:53:31;15.02;;;5.85;;
40669;SDS011;26355;45.528;9.234;2023-07-30T01:55:57;14.43;;;6.15;;
40669;SDS011;26355;45.528;9.234;2023-07-30T01:58:22;13.10;;;5.30;;
40669;SDS011;26355;45.528;9.234;2023-07-30T02:00:48;16.67;;;5.68;;
40669;SDS011;26355;45.528;9.234;2023-07-30T02:03:13;14.45;;;5.75;;
40669;SDS011;26355;45.528;9.234;2023-07-30T02:05:39;14.27;;;5.32;;
40669;SDS011;26355;45.528;9.234;2023-07-30T02:08:04;14.57;;;5.22;;
40669;SDS011;26355;45.528;9.234;2023-07-30T02:10:30;12.02;;;4.18;;
40669;SDS011;26355;45.528;9.234;2023-07-30T02:12:56;13.23;;;4.85;;
40669;SDS011;26355;45.528;9.234;2023-07-30T02:15:21;13.15;;;5.00;;
40669;SDS011;26355;45.528;9.234;2023-07-30T02:17:47;13.02;;;4.88;;
40669;SDS011;26355;45.528;9.234;2023-07-30T02:20:12;14.07;;;5.55;;
40669;SDS011;26355;45.528;9.234;2023-07-30T02:22:38;15.20;;;5.57;;
40669;SDS011;26355;45.528;9.234;2023-07-30T02:25:03;13.68;;;5.43;;
40669;SDS011;26355;45.528;9.234;2023-07-30T02:27:29;13.63;;;5.75;;
40669;SDS011;26355;45.528;9.234;2023-07-30T02:29:55;15.98;;;5.72;;
40669;SDS011;26355;45.528;9.234;2023-07-30T02:32:20;16.13;;;6.47;;
40669;SDS011;26355;45.528;9.234;2023-07-30T02:34:46;15.95;;;6.20;;
40669;SDS011;26355;45.528;9.234;2023-07-30T02:37:12;14.88;;;5.57;;
40669;SDS011;26355;45.528;9.234;2023-07-30T02:39:38;15.18;;;6.13;;
40669;SDS011;26355;45.528;9.234;2023-07-30T02:42:03;14.80;;;5.70;;
40669;SDS011;26355;45.528;9.234;2023-07-30T02:44:29;15.38;;;5.68;;
40669;SDS011;26355;45.528;9.234;2023-07-30T02:47:02;16.60;;;7.05;;
40669;SDS011;26355;45.528;9.234;2023-07-30T02:49:28;15.25;;;6.03;;
40669;SDS011;26355;45.528;9.234;2023-07-30T02:51:53;15.23;;;6.22;;
40669;SDS011;26355;45.528;9.234;2023-07-30T02:54:19;15.75;;;6.72;;
40669;SDS011;26355;45.528;9.234;2023-07-30T02:56:47;15.25;;;6.60;;
40669;SDS011;26355;45.528;9.234;2023-07-30T02:59:12;16.55;;;6.47;;
40669;SDS011;26355;45.528;9.234;2023-07-30T03:01:38;16.23;;;6.90;;
40669;SDS011;26355;45.528;9.234;2023-07-30T03:04:03;16.13;;;6.78;;
40669;SDS011;26355;45.528;9.234;2023-07-30T03:06:29;16.63;;;6.80;;
40669;SDS011;26355;45.528;9.234;2023-07-30T03:08:55;16.75;;;6.68;;
40669;SDS011;26355;45.528;9.234;2023-07-30T03:11:21;16.73;;;6.97;;
40669;SDS011;26355;45.528;9.234;2023-07-30T03:13:47;16.65;;;7.72;;
40669;SDS011;26355;45.528;9.234;2023-07-30T03:16:13;16.52;;;7.78;;
40669;SDS011;26355;45.528;9.234;2023-07-30T03:18:39;17.15;;;7.90;;
40669;SDS011;26355;45.528;9.234;2023-07-30T03:21:04;14.85;;;6.88;;
40669;SDS011;26355;45.528;9.234;2023-07-30T03:23:30;14.48;;;6.50;;
40669;SDS011;26355;45.528;9.234;2023-07-30T03:25:56;16.33;;;7.63;;
40669;SDS011;26355;45.528;9.234;2023-07-30T03:28:22;15.38;;;7.30;;
40669;SDS011;26355;45.528;9.234;2023-07-30T03:30:48;16.25;;;7.57;;
40669;SDS011;26355;45.528;9.234;2023-07-30T03:33:14;18.40;;;7.05;;
40669;SDS011;26355;45.528;9.234;2023-07-30T03:35:40;16.77;;;7.15;;
40669;SDS011;26355;45.528;9.234;2023-07-30T03:38:05;16.30;;;7.88;;
40669;SDS011;26355;45.528;9.234;2023-07-30T03:40:31;16.52;;;7.20;;
40669;SDS011;26355;45.528;9.234;2023-07-30T03:42:57;15.45;;;7.28;;
40669;SDS011;26355;45.528;9.234;2023-07-30T03:45:22;16.45;;;7.53;;
40669;SDS011;26355;45.528;9.234;2023-07-30T03:47:48;14.77;;;6.63;;
40669;SDS011;26355;45.528;9.234;2023-07-30T03:50:24;17.02;;;7.30;;
40669;SDS011;26355;45.528;9.234;2023-07-30T03:52:50;17.90;;;8.02;;
40669;SDS011;26355;45.528;9.234;2023-07-30T03:55:16;17.77;;;7.47;;
40669;SDS011;26355;45.528;9.234;2023-07-30T03:57:41;16.05;;;7.95;;
40669;SDS011;26355;45.528;9.234;2023-07-30T04:00:07;16.50;;;7.32;;
40669;SDS011;26355;45.528;9.234;2023-07-30T04:02:32;15.80;;;6.88;;
40669;SDS011;26355;45.528;9.234;2023-07-30T04:04:58;16.73;;;8.10;;
40669;SDS011;26355;45.528;9.234;2023-07-30T04:07:23;15.02;;;6.65;;
40669;SDS011;26355;45.528;9.234;2023-07-30T04:09:49;14.95;;;6.25;;
40669;SDS011;26355;45.528;9.234;2023-07-30T04:12:15;16.45;;;6.95;;
40669;SDS011;26355;45.528;9.234;2023-07-30T04:14:40;15.45;;;6.38;;
40669;SDS011;26355;45.528;9.234;2023-07-30T04:17:06;14.13;;;5.57;;
40669;SDS011;26355;45.528;9.234;2023-07-30T04:19:31;15.18;;;6.60;;
40669;SDS011;26355;45.528;9.234;2023-07-30T04:21:57;15.77;;;6.38;;
40669;SDS011;26355;45.528;9.234;2023-07-30T04:24:22;15.68;;;6.70;;
40669;SDS011;26355;45.528;9.234;2023-07-30T04:26:48;15.77;;;6.43;;
40669;SDS011;26355;45.528;9.234;2023-07-30T04:29:13;15.38;;;7.07;;
40669;SDS011;26355;45.528;9.234;2023-07-30T04:31:47;15.38;;;6.95;;
40669;SDS011;26355;45.528;9.234;2023-07-30T04:34:13;14.80;;;6.45;;
40669;SDS011;26355;45.528;9.234;2023-07-30T04:36:47;15.00;;;6.13;;
40669;SDS011;26355;45.528;9.234;2023-07-30T04:39:12;15.80;;;6.88;;
40669;SDS011;26355;45.528;9.234;2023-07-30T04:41:38;16.05;;;7.32;;
40669;SDS011;26355;45.528;9.234;2023-07-30T04:44:04;15.88;;;6.53;;
40669;SDS011;26355;45.528;9.234;2023-07-30T04:46:37;14.07;;;5.65;;
40669;SDS011;26355;45.528;9.234;2023-07-30T04:49:03;14.93;;;6.38;;
40669;SDS011;26355;45.528;9.234;2023-07-30T04:51:29;13.48;;;5.72;;
40669;SDS011;26355;45.528;9.234;2023-07-30T04:53:55;17.00;;;6.72;;
40669;SDS011;26355;45.528;9.234;2023-07-30T04:56:20;16.85;;;6.82;;
40669;SDS011;26355;45.528;9.234;2023-07-30T04:58:46;15.15;;;5.82;;
40669;SDS011;26355;45.528;9.234;2023-07-30T05:01:11;13.57;;;5.13;;
40669;SDS011;26355;45.528;9.234;2023-07-30T05:03:37;14.10;;;5.63;;
40669;SDS011;26355;45.528;9.234;2023-07-30T05:06:04;15.18;;;5.93;;
40669;SDS011;26355;45.528;9.234;2023-07-30T05:08:30;13.48;;;5.07;;
40669;SDS011;26355;45.528;9.234;2023-07-30T05:10:55;14.45;;;5.75;;
40669;SDS011;26355;45.528;9.234;2023-07-30T05:13:21;15.15;;;5.90;;
40669;SDS011;26355;45.528;9.234;2023-07-30T05:15:47;12.88;;;5.18;;
40669;SDS011;26355;45.528;9.234;2023-07-30T05:18:12;12.88;;;5.22;;
40669;SDS011;26355;45.528;9.234;2023-07-30T05:20:38;15.60;;;6.32;;
40669;SDS011;26355;45.528;9.234;2023-07-30T05:23:04;13.35;;;5.35;;
40669;SDS011;26355;45.528;9.234;2023-07-30T05:25:31;14.70;;;5.80;;
40669;SDS011;26355;45.528;9.234;2023-07-30T05:27:57;14.65;;;5.30;;
40669;SDS011;26355;45.528;9.234;2023-07-30T05:30:22;13.27;;;5.18;;
40669;SDS011;26355;45.528;9.234;2023-07-30T05:32:48;12.75;;;4.60;;
40669;SDS011;26355;45.528;9.234;2023-07-30T05:35:14;14.68;;;5.57;;
40669;SDS011;26355;45.528;9.234;2023-07-30T05:37:39;13.57;;;5.28;;
40669;SDS011;26355;45.528;9.234;2023-07-30T05:40:05;13.32;;;4.88;;
40669;SDS011;26355;45.528;9.234;2023-07-30T05:42:31;12.33;;;4.70;;
40669;SDS011;26355;45.528;9.234;2023-07-30T05:44:57;11.70;;;4.72;;
40669;SDS011;26355;45.528;9.234;2023-07-30T05:47:23;13.73;;;4.50;;
40669;SDS011;26355;45.528;9.234;2023-07-30T05:49:48;12.93;;;3.95;;
40669;SDS011;26355;45.528;9.234;2023-07-30T05:52:14;12.35;;;4.43;;
40669;SDS011;26355;45.528;9.234;2023-07-30T05:54:39;12.27;;;4.10;;
40669;SDS011;26355;45.528;9.234;2023-07-30T05:57:05;12.23;;;4.30;;
40669;SDS011;26355;45.528;9.234;2023-07-30T05:59:30;11.70;;;4.13;;
40669;SDS011;26355;45.528;9.234;2023-07-30T06:01:56;12.05;;;4.35;;
40669;SDS011;26355;45.528;9.234;2023-07-30T06:04:23;13.27;;;4.90;;
40669;SDS011;26355;45.528;9.234;2023-07-30T06:06:48;13.07;;;5.20;;
40669;SDS011;26355;45.528;9.234;2023-07-30T06:09:14;14.95;;;5.57;;
40669;SDS011;26355;45.528;9.234;2023-07-30T06:11:39;13.73;;;4.88;;
40669;SDS011;26355;45.528;9.234;2023-07-30T06:14:05;14.30;;;4.95;;
40669;SDS011;26355;45.528;9.234;2023-07-30T06:16:31;13.82;;;5.35;;
40669;SDS011;26355;45.528;9.234;2023-07-30T06:18:56;14.13;;;5.63;;
40669;SDS011;26355;45.528;9.234;2023-07-30T06:21:22;13.73;;;5.47;;
40669;SDS011;26355;45.528;9.234;2023-07-30T06:23:47;12.95;;;4.45;;
40669;SDS011;26355;45.528;9.234;2023-07-30T06:26:13;12.40;;;4.82;;
40669;SDS011;26355;45.528;9.234;2023-07-30T06:28:38;11.95;;;4.57;;
40669;SDS011;26355;45.528;9.234;2023-07-30T06:31:04;12.50;;;4.70;;
40669;SDS011;26355;45.528;9.234;2023-07-30T06:33:29;13.00;;;5.03;;
40669;SDS011;26355;45.528;9.234;2023-07-30T06:35:55;11.95;;;4.40;;
40669;SDS011;26355;45.528;9.234;2023-07-30T06:38:21;12.05;;;4.10;;
40669;SDS011;26355;45.528;9.234;2023-07-30T06:40:47;12.75;;;4.18;;
40669;SDS011;26355;45.528;9.234;2023-07-30T06:43:12;11.60;;;3.90;;
40669;SDS011;26355;45.528;9.234;2023-07-30T06:45:38;10.80;;;4.13;;
40669;SDS011;26355;45.528;9.234;2023-07-30T06:48:04;12.93;;;4.38;;
40669;SDS011;26355;45.528;9.234;2023-07-30T06:50:29;10.68;;;4.15;;
40669;SDS011;26355;45.528;9.234;2023-07-30T06:52:55;11.10;;;4.00;;
40669;SDS011;26355;45.528;9.234;2023-07-30T06:55:20;11.10;;;3.85;;
40669;SDS011;26355;45.528;9.234;2023-07-30T06:57:46;13.82;;;4.28;;
40669;SDS011;26355;45.528;9.234;2023-07-30T07:00:12;11.10;;;4.00;;
40669;SDS011;26355;45.528;9.234;2023-07-30T07:02:38;11.90;;;4.20;;
40669;SDS011;26355;45.528;9.234;2023-07-30T07:05:03;10.85;;;3.70;;
40669;SDS011;26355;45.528;9.234;2023-07-30T07:07:30;11.93;;;4.28;;
40669;SDS011;26355;45.528;9.234;2023-07-30T07:09:55;11.88;;;4.07;;
40669;SDS011;26355;45.528;9.234;2023-07-30T07:12:21;10.85;;;3.80;;
40669;SDS011;26355;45.528;9.234;2023-07-30T07:14:46;13.38;;;4.13;;
40669;SDS011;26355;45.528;9.234;2023-07-30T07:17:13;15.13;;;4.50;;
40669;SDS011;26355;45.528;9.234;2023-07-30T07:19:39;12.02;;;4.20;;
40669;SDS011;26355;45.528;9.234;2023-07-30T07:22:04;11.65;;;4.40;;
40669;SDS011;26355;45.528;9.234;2023-07-30T07:24:30;11.50;;;4.13;;
40669;SDS011;26355;45.528;9.234;2023-07-30T07:26:56;12.48;;;4.75;;
40669;SDS011;26355;45.528;9.234;2023-07-30T07:29:22;10.93;;;4.18;;
40669;SDS011;26355;45.528;9.234;2023-07-30T07:31:47;11.27;;;4.63;;
40669;SDS011;26355;45.528;9.234;2023-07-30T07:34:13;14.52;;;5.30;;
40669;SDS011;26355;45.528;9.234;2023-07-30T07:36:39;15.00;;;5.32;;
40669;SDS011;26355;45.528;9.234;2023-07-30T07:39:04;12.48;;;4.70;;
40669;SDS011;26355;45.528;9.234;2023-07-30T07:41:30;13.00;;;4.82;;
40669;SDS011;26355;45.528;9.234;2023-07-30T07:43:56;12.77;;;4.45;;
40669;SDS011;26355;45.528;9.234;2023-07-30T07:46:21;10.73;;;4.28;;
40669;SDS011;26355;45.528;9.234;2023-07-30T07:48:47;13.75;;;4.80;;
40669;SDS011;26355;45.528;9.234;2023-07-30T07:51:13;12.30;;;4.68;;
40669;SDS011;26355;45.528;9.234;2023-07-30T07:53:38;12.18;;;4.90;;
40669;SDS011;26355;45.528;9.234;2023-07-30T07:56:04;14.68;;;4.95;;
40669;SDS011;26355;45.528;9.234;2023-07-30T07:58:30;12.85;;;4.88;;
40669;SDS011;26355;45.528;9.234;2023-07-30T08:00:56;14.57;;;4.80;;
40669;SDS011;26355;45.528;9.234;2023-07-30T08:03:22;11.55;;;4.45;;
40669;SDS011;26355;45.528;9.234;2023-07-30T08:05:49;11.63;;;4.25;;
40669;SDS011;26355;45.528;9.234;2023-07-30T08:08:15;11.63;;;4.03;;
40669;SDS011;26355;45.528;9.234;2023-07-30T08:10:41;13.23;;;4.40;;
40669;SDS011;26355;45.528;9.234;2023-07-30T08:13:11;13.15;;;4.55;;
40669;SDS011;26355;45.528;9.234;2023-07-30T08:15:37;10.80;;;4.45;;
40669;SDS011;26355;45.528;9.234;2023-07-30T08:18:03;13.23;;;4.95;;
40669;SDS011;26355;45.528;9.234;2023-07-30T08:20:28;11.75;;;4.28;;
40669;SDS011;26355;45.528;9.234;2023-07-30T08:22:54;13.45;;;5.20;;
40669;SDS011;26355;45.528;9.234;2023-07-30T08:25:19;12.95;;;4.68;;
40669;SDS011;26355;45.528;9.234;2023-07-30T08:27:45;13.05;;;5.07;;
40669;SDS011;26355;45.528;9.234;2023-07-30T08:30:11;14.90;;;5.28;;
40669;SDS011;26355;45.528;9.234;2023-07-30T08:32:37;14.10;;;4.57;;
40669;SDS011;26355;45.528;9.234;2023-07-30T08:35:03;15.00;;;5.28;;
40669;SDS011;26355;45.528;9.234;2023-07-30T08:37:29;13.73;;;5.57;;
40669;SDS011;26355;45.528;9.234;2023-07-30T08:39:55;14.55;;;5.70;;
40669;SDS011;26355;45.528;9.234;2023-07-30T08:42:20;13.35;;;5.50;;
40669;SDS011;26355;45.528;9.234;2023-07-30T08:44:47;13.97;;;5.53;;
40669;SDS011;26355;45.528;9.234;2023-07-30T08:47:12;13.55;;;5.18;;
40669;SDS011;26355;45.528;9.234;2023-07-30T08:49:38;14.35;;;5.32;;
40669;SDS011;26355;45.528;9.234;2023-07-30T08:52:03;15.48;;;5.30;;
40669;SDS011;26355;45.528;9.234;2023-07-30T08:54:32;16.23;;;6.03;;
40669;SDS011;26355;45.528;9.234;2023-07-30T08:56:59;13.80;;;5.35;;
40669;SDS011;26355;45.528;9.234;2023-07-30T08:59:25;13.73;;;4.90;;
40669;SDS011;26355;45.528;9.234;2023-07-30T09:01:54;15.02;;;5.15;;
40669;SDS011;26355;45.528;9.234;2023-07-30T09:04:20;14.60;;;5.50;;
40669;SDS011;26355;45.528;9.234;2023-07-30T09:06:49;13.00;;;5.10;;
40669;SDS011;26355;45.528;9.234;2023-07-30T09:09:15;14.02;;;4.82;;
40669;SDS011;26355;45.528;9.234;2023-07-30T09:11:41;13.63;;;5.13;;
40669;SDS011;26355;45.528;9.234;2023-07-30T09:14:07;14.52;;;5.50;;
40669;SDS011;26355;45.528;9.234;2023-07-30T09:18:59;14.17;;;4.97;;
40669;SDS011;26355;45.528;9.234;2023-07-30T09:21:31;12.75;;;4.28;;
40669;SDS011;26355;45.528;9.234;2023-07-30T09:24:00;12.93;;;4.30;;
40669;SDS011;26355;45.528;9.234;2023-07-30T09:26:31;12.05;;;4.13;;
40669;SDS011;26355;45.528;9.234;2023-07-30T09:29:09;11.87;;;4.43;;
40669;SDS011;26355;45.528;9.234;2023-07-30T09:31:49;12.68;;;4.82;;
40669;SDS011;26355;45.528;9.234;2023-07-30T09:34:19;11.38;;;4.07;;
40669;SDS011;26355;45.528;9.234;2023-07-30T09:36:46;12.38;;;3.85;;
40669;SDS011;26355;45.528;9.234;2023-07-30T09:39:16;11.88;;;3.45;;
40669;SDS011;26355;45.528;9.234;2023-07-30T09:41:44;11.07;;;4.05;;
40669;SDS011;26355;45.528;9.234;2023-07-30T09:44:10;10.93;;;3.80;;
40669;SDS011;26355;45.528;9.234;2023-07-30T09:46:43;9.63;;;3.45;;
40669;SDS011;26355;45.528;9.234;2023-07-30T09:49:09;9.68;;;3.38;;
40669;SDS011;26355;45.528;9.234;2023-07-30T09:51:38;12.88;;;3.95;;
40669;SDS011;26355;45.528;9.234;2023-07-30T09:54:07;10.80;;;3.30;;
40669;SDS011;26355;45.528;9.234;2023-07-30T09:56:37;10.45;;;3.45;;
40669;SDS011;26355;45.528;9.234;2023-07-30T09:59:04;12.68;;;3.30;;
40669;SDS011;26355;45.528;9.234;2023-07-30T10:01:31;9.70;;;3.33;;
40669;SDS011;26355;45.528;9.234;2023-07-30T10:03:59;9.63;;;3.45;;
40669;SDS011;26355;45.528;9.234;2023-07-30T10:06:32;8.95;;;3.20;;
40669;SDS011;26355;45.528;9.234;2023-07-30T10:09:01;11.70;;;3.40;;
40669;SDS011;26355;45.528;9.234;2023-07-30T10:11:27;10.57;;;3.38;;
40669;SDS011;26355;45.528;9.234;2023-07-30T10:13:53;10.88;;;3.45;;
40669;SDS011;26355;45.528;9.234;2023-07-30T10:18:55;12.93;;;3.60;;
40669;SDS011;26355;45.528;9.234;2023-07-30T10:21:25;10.38;;;3.38;;
40669;SDS011;26355;45.528;9.234;2023-07-30T10:24:02;12.20;;;4.22;;
40669;SDS011;26355;45.528;9.234;2023-07-30T10:29:14;11.80;;;3.85;;
40669;SDS011;26355;45.528;9.234;2023-07-30T10:31:42;11.30;;;3.90;;
40669;SDS011;26355;45.528;9.234;2023-07-30T10:36:50;10.00;;;3.45;;
40669;SDS011;26355;45.528;9.234;2023-07-30T10:39:18;9.98;;;3.55;;
40669;SDS011;26355;45.528;9.234;2023-07-30T10:41:51;12.43;;;3.80;;
40669;SDS011;26355;45.528;9.234;2023-07-30T10:44:28;11.18;;;4.13;;
40669;SDS011;26355;45.528;9.234;2023-07-30T10:46:58;10.50;;;3.53;;
40669;SDS011;26355;45.528;9.234;2023-07-30T10:51:51;12.00;;;3.90;;
40669;SDS011;26355;45.528;9.234;2023-07-30T10:54:18;9.38;;;3.70;;
40669;SDS011;26355;45.528;9.234;2023-07-30T10:56:44;11.13;;;4.13;;
40669;SDS011;26355;45.528;9.234;2023-07-30T10:59:10;9.30;;;3.33;;
40669;SDS011;26355;45.528;9.234;2023-07-30T11:01:39;10.73;;;3.90;;
40669;SDS011;26355;45.528;9.234;2023-07-30T11:04:06;9.60;;;3.70;;
40669;SDS011;26355;45.528;9.234;2023-07-30T11:06:33;10.40;;;3.83;;
40669;SDS011;26355;45.528;9.234;2023-07-30T11:08:59;9.93;;;3.65;;
40669;SDS011;26355;45.528;9.234;2023-07-30T11:11:24;10.52;;;3.72;;
40669;SDS011;26355;45.528;9.234;2023-07-30T11:13:51;11.40;;;4.00;;
40669;SDS011;26355;45.528;9.234;2023-07-30T11:16:17;11.48;;;3.63;;
40669;SDS011;26355;45.528;9.234;2023-07-30T11:18:43;11.98;;;3.95;;
40669;SDS011;26355;45.528;9.234;2023-07-30T11:21:10;10.82;;;4.00;;
40669;SDS011;26355;45.528;9.234;2023-07-30T11:23:40;10.98;;;4.05;;
40669;SDS011;26355;45.528;9.234;2023-07-30T11:26:07;9.73;;;3.58;;
40669;SDS011;26355;45.528;9.234;2023-07-30T11:28:34;10.77;;;4.00;;
40669;SDS011;26355;45.528;9.234;2023-07-30T11:31:05;12.25;;;3.83;;
40669;SDS011;26355;45.528;9.234;2023-07-30T11:33:32;10.18;;;3.70;;
40669;SDS011;26355;45.528;9.234;2023-07-30T11:36:00;8.27;;;3.50;;
40669;SDS011;26355;45.528;9.234;2023-07-30T11:38:27;11.43;;;3.47;;
40669;SDS011;26355;45.528;9.234;2023-07-30T11:40:53;12.07;;;3.72;;
40669;SDS011;26355;45.528;9.234;2023-07-30T11:43:22;9.68;;;3.60;;
40669;SDS011;26355;45.528;9.234;2023-07-30T11:45:48;9.32;;;3.42;;
40669;SDS011;26355;45.528;9.234;2023-07-30T11:48:30;9.50;;;3.40;;
40669;SDS011;26355;45.528;9.234;2023-07-30T11:50:58;11.98;;;3.88;;
40669;SDS011;26355;45.528;9.234;2023-07-30T11:53:29;11.70;;;3.30;;
40669;SDS011;26355;45.528;9.234;2023-07-30T11:56:16;9.07;;;3.22;;
40669;SDS011;26355;45.528;9.234;2023-07-30T11:58:43;8.05;;;3.00;;
40669;SDS011;26355;45.528;9.234;2023-07-30T12:01:09;10.70;;;3.42;;
40669;SDS011;26355;45.528;9.234;2023-07-30T12:03:34;10.77;;;3.35;;
40669;SDS011;26355;45.528;9.234;2023-07-30T12:06:04;12.65;;;3.47;;
40669;SDS011;26355;45.528;9.234;2023-07-30T12:08:30;9.98;;;3.30;;
40669;SDS011;26355;45.528;9.234;2023-07-30T12:11:01;13.70;;;3.95;;
40669;SDS011;26355;45.528;9.234;2023-07-30T12:13:32;14.45;;;3.92;;
40669;SDS011;26355;45.528;9.234;2023-07-30T12:15:58;11.50;;;3.43;;
40669;SDS011;26355;45.528;9.234;2023-07-30T12:18:25;9.43;;;3.63;;
40669;SDS011;26355;45.528;9.234;2023-07-30T12:20:53;11.00;;;3.20;;
40669;SDS011;26355;45.528;9.234;2023-07-30T12:23:20;9.50;;;3.08;;
40669;SDS011;26355;45.528;9.234;2023-07-30T12:25:46;9.52;;;3.08;;
40669;SDS011;26355;45.528;9.234;2023-07-30T12:28:12;10.05;;;3.30;;
40669;SDS011;26355;45.528;9.234;2023-07-30T12:30:38;8.40;;;3.20;;
40669;SDS011;26355;45.528;9.234;2023-07-30T12:33:04;8.77;;;3.28;;
40669;SDS011;26355;45.528;9.234;2023-07-30T12:35:30;10.50;;;3.15;;
40669;SDS011;26355;45.528;9.234;2023-07-30T12:37:57;9.23;;;3.05;;
40669;SDS011;26355;45.528;9.234;2023-07-30T12:40:23;9.23;;;3.13;;
40669;SDS011;26355;45.528;9.234;2023-07-30T12:42:49;9.18;;;3.00;;
40669;SDS011;26355;45.528;9.234;2023-07-30T12:45:14;9.80;;;3.60;;
40669;SDS011;26355;45.528;9.234;2023-07-30T12:47:41;11.15;;;3.58;;
40669;SDS011;26355;45.528;9.234;2023-07-30T12:52:37;10.20;;;3.43;;
40669;SDS011;26355;45.528;9.234;2023-07-30T12:55:02;11.38;;;3.50;;
40669;SDS011;26355;45.528;9.234;2023-07-30T12:57:29;9.95;;;3.53;;
40669;SDS011;26355;45.528;9.234;2023-07-30T12:59:55;9.97;;;3.40;;
40669;SDS011;26355;45.528;9.234;2023-07-30T13:02:22;9.98;;;3.50;;
40669;SDS011;26355;45.528;9.234;2023-07-30T13:04:48;10.55;;;3.35;;
40669;SDS011;26355;45.528;9.234;2023-07-30T13:07:13;11.02;;;3.08;;
40669;SDS011;26355;45.528;9.234;2023-07-30T13:09:39;11.82;;;3.63;;
40669;SDS011;26355;45.528;9.234;2023-07-30T13:12:04;9.60;;;3.30;;
40669;SDS011;26355;45.528;9.234;2023-07-30T13:14:30;11.90;;;3.60;;
40669;SDS011;26355;45.528;9.234;2023-07-30T13:16:56;8.52;;;3.17;;
40669;SDS011;26355;45.528;9.234;2023-07-30T13:19:22;10.43;;;3.25;;
40669;SDS011;26355;45.528;9.234;2023-07-30T13:21:47;11.65;;;3.42;;
40669;SDS011;26355;45.528;9.234;2023-07-30T13:24:13;9.23;;;3.20;;
40669;SDS011;26355;45.528;9.234;2023-07-30T13:26:39;12.70;;;3.25;;
40669;SDS011;26355;45.528;9.234;2023-07-30T13:29:04;8.38;;;3.00;;
40669;SDS011;26355;45.528;9.234;2023-07-30T13:31:30;9.07;;;3.08;;
40669;SDS011;26355;45.528;9.234;2023-07-30T13:33:56;9.60;;;3.00;;
40669;SDS011;26355;45.528;9.234;2023-07-30T13:36:21;10.32;;;3.20;;
40669;SDS011;26355;45.528;9.234;2023-07-30T13:38:47;12.82;;;3.83;;
40669;SDS011;26355;45.528;9.234;2023-07-30T13:41:12;11.13;;;4.05;;
40669;SDS011;26355;45.528;9.234;2023-07-30T13:43:38;10.10;;;3.33;;
40669;SDS011;26355;45.528;9.234;2023-07-30T13:46:04;11.18;;;3.38;;
40669;SDS011;26355;45.528;9.234;2023-07-30T13:48:30;10.53;;;3.50;;
40669;SDS011;26355;45.528;9.234;2023-07-30T13:50:55;9.88;;;3.40;;
40669;SDS011;26355;45.528;9.234;2023-07-30T13:53:21;10.57;;;3.15;;
40669;SDS011;26355;45.528;9.234;2023-07-30T13:55:46;9.23;;;3.25;;
40669;SDS011;26355;45.528;9.234;2023-07-30T13:58:12;10.52;;;3.15;;
40669;SDS011;26355;45.528;9.234;2023-07-30T14:00:40;10.02;;;3.15;;
40669;SDS011;26355;45.528;9.234;2023-07-30T14:03:07;10.30;;;3.70;;
40669;SDS011;26355;45.528;9.234;2023-07-30T14:05:33;10.65;;;3.60;;
40669;SDS011;26355;45.528;9.234;2023-07-30T14:07:59;9.57;;;3.45;;
40669;SDS011;26355;45.528;9.234;2023-07-30T14:10:25;12.00;;;3.40;;
40669;SDS011;26355;45.528;9.234;2023-07-30T14:12:52;11.13;;;3.42;;
40669;SDS011;26355;45.528;9.234;2023-07-30T14:15:17;9.80;;;3.67;;
40669;SDS011;26355;45.528;9.234;2023-07-30T14:17:43;11.00;;;3.28;;
40669;SDS011;26355;45.528;9.234;2023-07-30T14:20:09;12.27;;;3.23;;
40669;SDS011;26355;45.528;9.234;2023-07-30T14:22:35;10.13;;;3.38;;
40669;SDS011;26355;45.528;9.234;2023-07-30T14:25:01;9.50;;;3.10;;
40669;SDS011;26355;45.528;9.234;2023-07-30T14:27:28;9.60;;;3.10;;
40669;SDS011;26355;45.528;9.234;2023-07-30T14:29:54;8.88;;;3.05;;
40669;SDS011;26355;45.528;9.234;2023-07-30T14:32:20;7.65;;;2.90;;
40669;SDS011;26355;45.528;9.234;2023-07-30T14:34:46;8.73;;;3.10;;
40669;SDS011;26355;45.528;9.234;2023-07-30T14:37:12;7.70;;;3.30;;
40669;SDS011;26355;45.528;9.234;2023-07-30T14:39:37;8.97;;;3.23;;
40669;SDS011;26355;45.528;9.234;2023-07-30T14:42:04;10.68;;;3.50;;
40669;SDS011;26355;45.528;9.234;2023-07-30T14:44:30;9.18;;;3.53;;
40669;SDS011;26355;45.528;9.234;2023-07-30T14:46:55;12.95;;;3.60;;
40669;SDS011;26355;45.528;9.234;2023-07-30T14:49:23;9.80;;;2.75;;
40669;SDS011;26355;45.528;9.234;2023-07-30T14:51:49;10.55;;;3.55;;
40669;SDS011;26355;45.528;9.234;2023-07-30T14:54:16;8.63;;;2.80;;
40669;SDS011;26355;45.528;9.234;2023-07-30T14:56:42;6.65;;;2.88;;
40669;SDS011;26355;45.528;9.234;2023-07-30T14:59:07;7.10;;;2.50;;